Time;durP1;ratioP1;P1;durP2;ratioP2;P2;SDS_P1;SDS_P2;PMS_P1;PMS_P2;Temp;Humidity;BMP_temperature;BMP_pressure;BME280_temperature;BME280_humidity;BME280_pressure;Samples;Min_cycle;Max_cycle;Signal;HPM_P1;HPM_P2
2022/11/29 00:01:27;;;;;;;69.68;41.58;;;;;;;9.40;69.44;101209.28;4987192;28;119348;-75
2022/11/29 00:03:54;;;;;;;73.40;43.08;;;;;;;9.41;69.57;101208.88;4986661;28;119403;-76
2022/11/29 00:06:28;;;;;;;73.65;42.30;;;;;;;9.44;69.37;101220.94;4986221;28;119597;-76
2022/11/29 00:09:00;;;;;;;71.18;43.67;;;;;;;9.45;69.36;101211.50;4950267;28;119905;-76
2022/11/29 00:14:16;;;;;;;76.68;44.45;;;;;;;9.43;69.05;101211.94;4988322;28;119564;-75
2022/11/29 00:16:42;;;;;;;80.50;45.33;;;;;;;9.43;69.47;101217.41;4966831;28;119888;-76
2022/11/29 00:19:10;;;;;;;74.72;44.67;;;;;;;9.43;69.23;101208.44;4989563;28;120097;-76
2022/11/29 00:21:35;;;;;;;73.03;44.90;;;;;;;9.42;69.35;101209.63;4983236;28;119272;-76
2022/11/29 00:24:02;;;;;;;78.85;45.88;;;;;;;9.39;69.37;101207.75;4982194;28;119982;-76
2022/11/29 00:26:28;;;;;;;75.43;44.58;;;;;;;9.45;69.45;101216.97;4983051;28;119296;-75
2022/11/29 00:28:54;;;;;;;75.55;45.08;;;;;;;9.44;68.90;101215.44;4952642;28;119773;-76
2022/11/29 00:31:25;;;;;;;77.07;45.45;;;;;;;9.38;69.22;101217.94;4984974;28;120057;-75
2022/11/29 00:33:51;;;;;;;73.95;45.28;;;;;;;9.40;68.74;101217.50;4968506;28;119537;-75
2022/11/29 00:36:18;;;;;;;81.65;47.35;;;;;;;9.42;69.35;101223.31;4989748;28;119570;-75
2022/11/29 00:38:44;;;;;;;77.93;47.38;;;;;;;9.44;69.63;101215.44;4987308;28;119380;-76
2022/11/29 00:41:10;;;;;;;79.35;47.60;;;;;;;9.45;69.36;101222.47;4984537;28;119735;-76
2022/11/29 00:43:36;;;;;;;82.95;48.38;;;;;;;9.40;68.82;101209.28;4980551;28;120417;-75
2022/11/29 00:46:08;;;;;;;76.80;47.13;;;;;;;9.45;69.55;101223.22;4965706;28;119501;-76
2022/11/29 00:48:34;;;;;;;81.53;48.45;;;;;;;9.45;69.17;101220.50;4983601;28;119886;-75
2022/11/29 00:51:01;;;;;;;81.05;48.83;;;;;;;9.45;69.83;101211.50;4964871;28;122541;-76
2022/11/29 00:53:27;;;;;;;84.43;49.60;;;;;;;9.39;69.38;101205.78;4986425;28;120028;-76
2022/11/29 00:55:53;;;;;;;82.15;48.47;;;;;;;9.43;69.22;101219.38;4963362;28;119447;-75
2022/11/29 00:58:19;;;;;;;83.63;48.53;;;;;;;9.47;68.95;101218.13;4965081;28;119577;-75
2022/11/29 01:00:46;;;;;;;80.28;49.35;;;;;;;9.45;69.61;101217.75;4982654;28;120264;-76
2022/11/29 01:03:13;;;;;;;89.70;51.33;;;;;;;9.46;69.40;101213.03;4947056;28;120643;-76
2022/11/29 01:05:39;;;;;;;86.28;50.88;;;;;;;9.44;68.46;101209.97;4971072;28;119242;-75
2022/11/29 01:08:05;;;;;;;82.35;50.83;;;;;;;9.45;68.88;101212.28;4990808;28;119376;-76
2022/11/29 01:10:31;;;;;;;86.72;51.08;;;;;;;9.43;69.28;101205.69;4987242;28;118973;-76
2022/11/29 01:12:57;;;;;;;82.13;49.58;;;;;;;9.46;69.20;101221.25;4987718;28;119770;-76
2022/11/29 01:15:22;;;;;;;87.10;51.40;;;;;;;9.45;69.21;101216.97;4968391;28;120379;-76
2022/11/29 01:17:49;;;;;;;90.32;52.60;;;;;;;9.44;68.81;101227.16;4971855;28;119461;-75
2022/11/29 01:20:15;;;;;;;87.68;52.55;;;;;;;9.44;68.86;101221.69;4995447;28;119762;-75
2022/11/29 01:22:41;;;;;;;85.30;52.00;;;;;;;9.44;68.95;101218.94;4970028;28;120631;-76
2022/11/29 01:25:09;;;;;;;83.22;52.10;;;;;;;9.45;69.14;101222.47;4987363;28;119780;-75
2022/11/29 01:27:35;;;;;;;88.47;53.17;;;;;;;9.46;69.53;101229.47;4986055;28;119891;-76
2022/11/29 01:30:01;;;;;;;84.72;52.42;;;;;;;9.42;69.12;101229.56;4987419;28;119764;-76
2022/11/29 01:32:27;;;;;;;86.05;52.65;;;;;;;9.44;69.09;101226.41;4951924;28;119385;-76
2022/11/29 01:34:52;;;;;;;87.78;51.63;;;;;;;9.49;68.96;101234.13;4987909;28;119554;-76
2022/11/29 01:37:18;;;;;;;84.95;52.22;;;;;;;9.49;69.40;101232.16;4985284;28;119882;-75
2022/11/29 01:39:44;;;;;;;86.57;52.15;;;;;;;9.51;69.25;101232.50;4965614;28;119677;-76
2022/11/29 01:42:11;;;;;;;89.50;54.30;;;;;;;9.51;69.02;101237.19;4990579;28;120164;-76
2022/11/29 01:44:37;;;;;;;88.35;52.47;;;;;;;9.50;69.06;101238.41;4987338;28;119736;-76
2022/11/29 01:47:02;;;;;;;86.55;51.70;;;;;;;9.46;68.89;101232.22;4989059;28;119588;-76
2022/11/29 01:49:33;;;;;;;88.55;52.60;;;;;;;9.48;69.01;101243.53;4985632;28;120182;-76
2022/11/29 01:52:03;;;;;;;86.80;52.30;;;;;;;9.49;69.18;101240.38;4988753;28;119401;-76
2022/11/29 01:54:51;;;;;;;87.53;53.10;;;;;;;9.43;68.49;101238.56;4985762;28;119765;-75
2022/11/29 01:57:20;;;;;;;87.13;51.95;;;;;;;9.47;68.93;101252.94;4971738;28;120636;-75
2022/11/29 01:59:50;;;;;;;89.85;53.63;;;;;;;9.46;68.73;101248.66;4969814;28;119302;-75
2022/11/29 02:02:34;;;;;;;86.00;51.90;;;;;;;9.45;69.30;101252.59;4986804;28;119582;-76
2022/11/29 02:05:01;;;;;;;85.15;51.22;;;;;;;9.44;68.64;101243.59;4991044;28;119980;-76
2022/11/29 02:07:27;;;;;;;89.55;52.78;;;;;;;9.42;68.76;101234.28;4951898;28;119909;-76
2022/11/29 02:09:53;;;;;;;86.68;51.97;;;;;;;9.41;69.00;101233.50;4988801;28;119722;-75
2022/11/29 02:12:31;;;;;;;82.00;49.72;;;;;;;9.45;68.69;101252.59;4988411;28;119857;-75
2022/11/29 02:15:14;;;;;;;85.18;51.58;;;;;;;9.43;68.62;101242.06;4970334;28;122290;-75
2022/11/29 02:18:04;;;;;;;82.18;50.30;;;;;;;9.43;68.36;101242.06;4984454;28;119842;-76
2022/11/29 02:20:48;;;;;;;86.03;52.28;;;;;;;9.43;68.64;101241.28;4989336;28;119749;-76
2022/11/29 02:23:23;;;;;;;84.32;50.42;;;;;;;9.40;68.48;101251.13;4987987;28;120277;-75
2022/11/29 02:26:26;;;;;;;82.88;50.72;;;;;;;9.41;69.13;101249.16;4981985;28;119942;-76
2022/11/29 02:29:13;;;;;;;84.43;52.25;;;;;;;9.41;68.93;101254.66;4987117;28;119787;-76
2022/11/29 02:31:52;;;;;;;81.78;50.28;;;;;;;9.40;68.94;101251.13;4985135;28;121820;-75
2022/11/29 02:34:36;;;;;;;81.43;50.97;;;;;;;9.40;68.69;101253.09;4983946;28;119641;-76
2022/11/29 02:37:02;;;;;;;87.22;50.75;;;;;;;9.40;69.43;101248.41;4988347;28;119203;-75
2022/11/29 02:39:43;;;;;;;81.15;51.03;;;;;;;9.41;68.99;101260.13;4987708;28;119761;-75
2022/11/29 02:42:26;;;;;;;84.35;51.45;;;;;;;9.39;69.33;101262.50;4968980;28;119358;-75
2022/11/29 02:45:08;;;;;;;82.30;50.75;;;;;;;9.38;69.44;101252.75;4967655;28;119302;-75
2022/11/29 02:48:11;;;;;;;81.90;50.17;;;;;;;9.41;69.09;101263.63;4987855;28;119249;-76
2022/11/29 02:51:10;;;;;;;81.35;51.30;;;;;;;9.38;69.03;101250.78;4958968;28;120148;-76
2022/11/29 02:53:47;;;;;;;82.68;50.33;;;;;;;9.30;68.74;101243.19;4985818;28;119849;-76
2022/11/29 02:56:30;;;;;;;79.28;50.03;;;;;;;9.35;69.26;101261.84;4989107;28;119315;-75
2022/11/29 02:59:22;;;;;;;78.53;48.83;;;;;;;9.33;69.21;101266.97;4969743;28;119882;-76
2022/11/29 03:01:57;;;;;;;79.07;49.45;;;;;;;9.35;69.25;101267.31;4967626;28;120169;-75
2022/11/29 03:04:33;;;;;;;78.70;49.13;;;;;;;9.36;69.00;101268.84;4984951;28;119614;-76
2022/11/29 03:07:14;;;;;;;80.75;49.08;;;;;;;9.35;68.90;101270.06;4987058;28;120170;-75
2022/11/29 03:10:06;;;;;;;76.78;48.60;;;;;;;9.36;69.30;101268.84;4954751;28;119939;-75
2022/11/29 03:12:46;;;;;;;81.32;50.83;;;;;;;9.32;69.02;101265.44;4952436;28;119435;-76
2022/11/29 03:15:54;;;;;;;77.90;49.50;;;;;;;9.36;69.41;101268.84;4966597;28;120047;-76
2022/11/29 03:18:49;;;;;;;79.40;49.05;;;;;;;9.30;69.09;101267.81;4961874;28;119694;-75
2022/11/29 03:21:21;;;;;;;77.72;49.72;;;;;;;9.34;68.94;101276.72;4987701;28;119609;-76
2022/11/29 03:23:49;;;;;;;76.90;49.00;;;;;;;9.31;69.19;101285.78;4986821;28;119908;-76
2022/11/29 03:26:24;;;;;;;79.47;49.55;;;;;;;9.29;68.97;101286.22;4987312;28;119756;-76
2022/11/29 03:28:53;;;;;;;80.88;48.95;;;;;;;9.30;68.86;101289.72;4985342;28;120199;-76
2022/11/29 03:31:50;;;;;;;80.80;50.20;;;;;;;9.32;69.26;101279.13;4983239;28;120019;-75
2022/11/29 03:34:36;;;;;;;79.28;49.35;;;;;;;9.33;68.86;101288.88;4970366;28;119994;-76
2022/11/29 03:37:02;;;;;;;76.38;48.88;;;;;;;9.34;68.89;101282.97;4982374;28;120580;-76
2022/11/29 03:39:43;;;;;;;78.43;47.70;;;;;;;9.36;68.86;101286.03;4991605;28;120553;-76
2022/11/29 03:42:22;;;;;;;77.38;48.63;;;;;;;9.37;68.70;101290.31;4987243;28;119748;-75
2022/11/29 03:45:06;;;;;;;80.80;49.65;;;;;;;9.37;68.84;101293.06;4986807;28;120113;-76
2022/11/29 03:47:43;;;;;;;82.53;50.75;;;;;;;9.37;68.50;101290.31;4985855;28;119672;-76
2022/11/29 03:50:18;;;;;;;77.18;48.78;;;;;;;9.38;69.11;101288.34;4983553;28;120171;-77
2022/11/29 03:52:52;;;;;;;81.65;50.05;;;;;;;9.39;68.73;101292.63;4967442;28;120042;-77
2022/11/29 03:55:21;;;;;;;81.93;50.33;;;;;;;9.39;68.84;101284.41;4979728;28;119892;-77
2022/11/29 03:58:12;;;;;;;86.30;51.00;;;;;;;9.40;69.19;101296.91;4980010;28;119334;-77
2022/11/29 04:01:00;;;;;;;86.38;49.80;;;;;;;9.40;68.62;101291.44;4949539;28;119530;-76
2022/11/29 04:03:38;;;;;;;81.25;50.65;;;;;;;9.35;68.77;101289.97;4964874;28;119942;-77
2022/11/29 04:06:39;;;;;;;82.20;51.03;;;;;;;9.42;68.84;101310.94;4959601;28;119861;-77
2022/11/29 04:09:36;;;;;;;84.32;52.20;;;;;;;9.44;69.22;101308.53;4925026;28;119338;-76
2022/11/29 04:12:21;;;;;;;84.35;51.40;;;;;;;9.45;69.15;101304.63;4969045;28;119663;-77
2022/11/29 04:15:11;;;;;;;81.90;51.08;;;;;;;9.44;68.68;101306.56;4966509;28;122251;-77
2022/11/29 04:18:22;;;;;;;82.55;51.08;;;;;;;9.44;69.03;101305.81;4984408;28;119713;-77
2022/11/29 04:21:04;;;;;;;83.60;51.03;;;;;;;9.43;68.76;101309.75;4961793;28;119836;-77
2022/11/29 04:24:10;;;;;;;87.13;52.78;;;;;;;9.41;68.74;101312.16;4984882;28;119978;-77
2022/11/29 04:27:00;;;;;;;81.53;52.65;;;;;;;9.42;69.17;101321.91;4949017;28;120083;-77
2022/11/29 04:29:47;;;;;;;84.88;51.75;;;;;;;9.44;68.73;101319.50;4971481;28;119578;-77
2022/11/29 04:33:12;;;;;;;83.05;52.00;;;;;;;9.32;68.53;101287.34;4982576;28;119597;-77
2022/11/29 04:35:59;;;;;;;84.68;51.47;;;;;;;9.40;68.87;101311.38;4907359;28;119504;-77
2022/11/29 04:38:24;;;;;;;87.03;52.45;;;;;;;9.44;69.03;101324.97;4907054;28;120167;-77
2022/11/29 04:40:59;;;;;;;88.22;54.28;;;;;;;9.44;68.65;101328.47;4966731;28;119355;-76
2022/11/29 04:43:53;;;;;;;91.78;54.17;;;;;;;9.44;68.76;101328.47;4980128;28;119556;-77
2022/11/29 04:46:48;;;;;;;96.50;54.22;;;;;;;9.43;69.28;101328.91;4982041;28;119346;-76
2022/11/29 04:49:46;;;;;;;98.97;56.83;;;;;;;9.28;68.62;101312.06;4981679;28;119369;-77
2022/11/29 04:52:26;;;;;;;98.05;55.67;;;;;;;9.39;68.71;101328.22;4953303;28;119400;-77
2022/11/29 04:55:16;;;;;;;98.78;56.72;;;;;;;9.44;68.86;101336.69;4966491;28;119541;-77
2022/11/29 04:58:14;;;;;;;97.38;54.67;;;;;;;9.42;68.96;101338.31;4968414;28;119259;-77
2022/11/29 05:00:55;;;;;;;108.15;56.90;;;;;;;9.40;68.74;101341.50;4968290;28;119401;-77
2022/11/29 05:04:08;;;;;;;100.75;57.03;;;;;;;9.44;68.72;101352.34;4952943;28;119415;-77
2022/11/29 05:06:48;;;;;;;94.65;55.28;;;;;;;9.44;69.07;101349.63;4980104;28;119593;-77
2022/11/29 05:09:42;;;;;;;91.25;55.08;;;;;;;9.44;68.97;101364.09;4968047;28;120961;-77
2022/11/29 05:12:14;;;;;;;90.80;56.27;;;;;;;9.46;69.07;101360.91;4986306;28;119152;-77
2022/11/29 05:15:00;;;;;;;93.53;56.83;;;;;;;9.43;68.61;101353.56;4986954;28;119232;-77
2022/11/29 05:17:31;;;;;;;87.18;55.30;;;;;;;9.53;69.11;101366.25;4987348;28;119547;-77
2022/11/29 05:20:38;;;;;;;90.22;56.40;;;;;;;9.55;68.48;101366.59;4967140;28;119630;-77
2022/11/29 05:23:39;;;;;;;92.55;55.55;;;;;;;9.49;68.73;101354.63;4891030;28;120433;-77
2022/11/29 05:26:11;;;;;;;90.50;56.03;;;;;;;9.58;68.48;101367.72;4985387;28;119910;-77
2022/11/29 05:28:54;;;;;;;90.97;55.78;;;;;;;9.58;68.94;101373.97;4964689;28;119450;-77
2022/11/29 05:31:45;;;;;;;86.85;56.53;;;;;;;9.60;68.86;101376.28;4965309;28;121175;-77
2022/11/29 05:34:37;;;;;;;90.05;56.13;;;;;;;9.61;68.70;101375.84;4949708;28;119605;-77
2022/11/29 05:37:28;;;;;;;91.00;54.83;;;;;;;9.60;68.73;101373.53;4959394;28;119848;-77
2022/11/29 05:40:00;;;;;;;88.93;55.72;;;;;;;9.62;68.80;101371.13;4983021;28;120436;-77
2022/11/29 05:42:54;;;;;;;97.68;59.28;;;;;;;9.60;68.93;101371.56;4984406;28;119715;-77
2022/11/29 05:45:29;;;;;;;94.32;56.85;;;;;;;9.59;68.37;101375.50;4953362;28;119462;-76
2022/11/29 05:48:20;;;;;;;95.07;57.33;;;;;;;9.63;68.57;101378.16;4983214;28;119503;-77
2022/11/29 05:50:57;;;;;;;90.95;57.95;;;;;;;9.61;68.47;101383.28;4966059;28;119944;-77
2022/11/29 05:53:40;;;;;;;89.63;58.45;;;;;;;9.60;68.69;101379.78;4984075;28;120339;-77
2022/11/29 05:56:33;;;;;;;92.85;56.95;;;;;;;9.63;68.35;101386.38;4980640;28;119799;-77
2022/11/29 05:59:01;;;;;;;90.65;57.05;;;;;;;9.63;68.41;101394.59;4974875;28;119466;-77
2022/11/29 06:01:36;;;;;;;93.05;59.35;;;;;;;9.55;68.46;101383.03;4991674;28;119969;-77
2022/11/29 06:04:16;;;;;;;91.63;57.92;;;;;;;9.62;68.24;101393.03;4950287;28;119463;-77
2022/11/29 06:06:44;;;;;;;93.30;58.30;;;;;;;9.65;68.58;101390.22;4994192;28;119608;-77
2022/11/29 06:09:28;;;;;;;95.95;59.00;;;;;;;9.65;68.27;101401.19;4991581;28;119490;-77
2022/11/29 06:12:12;;;;;;;101.68;59.60;;;;;;;9.64;68.27;101405.13;4976020;28;121214;-77
2022/11/29 06:14:40;;;;;;;100.65;58.55;;;;;;;9.64;68.65;101405.13;4961275;28;120481;-78
2022/11/29 06:17:25;;;;;;;100.30;58.15;;;;;;;9.64;68.20;101401.59;4974522;28;119626;-77
2022/11/29 06:20:23;;;;;;;106.68;59.88;;;;;;;9.64;68.59;101410.59;4975234;28;119440;-78
2022/11/29 06:23:23;;;;;;;103.10;60.92;;;;;;;9.63;68.65;101409.06;4963047;28;121722;-77
2022/11/29 06:25:59;;;;;;;92.75;58.00;;;;;;;9.61;68.30;101414.19;4972561;28;119497;-77
2022/11/29 06:28:38;;;;;;;96.05;59.83;;;;;;;9.60;68.40;101418.13;4972371;28;119927;-77
2022/11/29 06:31:27;;;;;;;90.00;57.55;;;;;;;9.59;68.76;101413.06;4975298;28;119296;-77
2022/11/29 06:34:06;;;;;;;91.32;57.83;;;;;;;9.60;68.70;101423.59;4967430;28;119942;-77
2022/11/29 06:36:44;;;;;;;92.38;59.20;;;;;;;9.65;68.70;101425.84;4969994;28;119204;-78
2022/11/29 06:39:10;;;;;;;87.60;56.25;;;;;;;9.61;68.19;101419.66;4988730;28;119301;-77
2022/11/29 06:41:36;;;;;;;90.88;58.13;;;;;;;9.64;68.80;101432.50;4988925;28;119587;-77
2022/11/29 06:44:03;;;;;;;89.03;58.17;;;;;;;9.66;68.53;101432.09;4973056;28;119440;-77
2022/11/29 06:46:55;;;;;;;83.57;56.08;;;;;;;9.70;68.68;101444.53;4954508;28;119588;-77
2022/11/29 06:49:31;;;;;;;86.25;55.78;;;;;;;9.70;68.69;101439.03;4967070;28;119818;-77
2022/11/29 06:52:00;;;;;;;91.38;56.65;;;;;;;9.70;68.63;101447.25;4978366;28;119264;-77
2022/11/29 06:55:04;;;;;;;84.63;55.88;;;;;;;9.71;68.40;101456.25;4991408;28;119258;-77
2022/11/29 06:58:11;;;;;;;88.63;55.53;;;;;;;9.72;68.14;101457.78;4989666;28;120732;-77
2022/11/29 07:00:52;;;;;;;85.45;55.42;;;;;;;9.69;68.71;101459.41;4979011;28;119561;-76
2022/11/29 07:03:43;;;;;;;86.97;56.17;;;;;;;9.67;68.64;101452.78;4979526;28;119674;-77
2022/11/29 07:06:24;;;;;;;83.72;55.33;;;;;;;9.67;68.43;101463.75;4983339;28;121211;-77
2022/11/29 07:08:59;;;;;;;83.63;54.95;;;;;;;9.68;68.37;101463.34;4968302;28;120318;-77
2022/11/29 07:11:26;;;;;;;83.45;53.13;;;;;;;9.69;68.60;101464.88;4969244;28;119746;-77
2022/11/29 07:14:01;;;;;;;83.32;53.50;;;;;;;9.65;68.50;101460.66;4966559;28;120168;-77
2022/11/29 07:16:47;;;;;;;81.63;53.58;;;;;;;9.69;68.49;101477.81;4983634;28;119212;-76
2022/11/29 07:19:12;;;;;;;82.75;54.72;;;;;;;9.70;68.46;101473.88;4974724;28;120100;-77
2022/11/29 07:22:15;;;;;;;85.18;54.33;;;;;;;9.71;68.35;101476.19;4964876;28;120071;-77
2022/11/29 07:25:09;;;;;;;81.38;54.75;;;;;;;9.72;68.93;101482.47;4988135;28;119325;-77
2022/11/29 07:28:16;;;;;;;81.45;53.13;;;;;;;9.72;68.26;101479.72;4976247;28;120371;-77
2022/11/29 07:31:08;;;;;;;79.13;53.38;;;;;;;9.71;68.21;101483.66;4970741;28;119190;-77
2022/11/29 07:33:33;;;;;;;78.55;53.10;;;;;;;9.71;68.43;101486.38;4969389;28;119860;-77
2022/11/29 07:36:05;;;;;;;82.75;52.88;;;;;;;9.72;68.20;101482.47;4953050;28;121067;-77
2022/11/29 07:38:43;;;;;;;82.22;54.30;;;;;;;9.73;68.68;101484.00;4969409;28;120035;-77
2022/11/29 07:41:47;;;;;;;85.00;53.85;;;;;;;9.73;68.53;101481.25;4951435;28;120132;-78
2022/11/29 07:44:22;;;;;;;87.53;53.47;;;;;;;9.75;68.60;101481.59;4986125;28;119345;-76
2022/11/29 07:46:48;;;;;;;83.78;52.28;;;;;;;9.76;68.73;101489.41;4956187;28;121393;-76
2022/11/29 07:49:14;;;;;;;86.57;52.47;;;;;;;9.71;68.55;101476.19;4969242;28;119952;-77
2022/11/29 07:51:40;;;;;;;86.20;53.83;;;;;;;9.77;68.13;101492.91;4983832;28;119731;-77
2022/11/29 07:54:06;;;;;;;89.93;51.75;;;;;;;9.73;68.81;101486.75;4986122;28;119566;-77
2022/11/29 07:56:32;;;;;;;97.15;52.38;;;;;;;9.77;68.56;101493.69;4988381;28;119410;-77
2022/11/29 07:58:58;;;;;;;90.35;52.03;;;;;;;9.80;68.72;101498.31;4971353;28;119809;-77
2022/11/29 08:01:23;;;;;;;81.32;49.83;;;;;;;9.79;68.42;101487.78;4952805;28;120093;-77
2022/11/29 08:03:49;;;;;;;80.10;50.50;;;;;;;9.84;67.96;101511.91;4989872;28;119414;-76
2022/11/29 08:06:15;;;;;;;88.35;50.50;;;;;;;9.78;68.46;101491.72;4969510;28;119750;-76
2022/11/29 08:09:09;;;;;;;82.07;48.38;;;;;;;9.81;68.44;101502.59;4868966;28;119777;-77
2022/11/29 08:11:35;;;;;;;81.05;48.45;;;;;;;9.77;68.56;101501.91;4881310;28;119723;-76
2022/11/29 08:14:03;;;;;;;74.50;48.00;;;;;;;9.83;68.17;101511.16;4946339;28;120041;-77
2022/11/29 08:16:29;;;;;;;77.65;47.70;;;;;;;9.87;68.23;101515.78;4984995;28;119339;-79
2022/11/29 08:18:54;;;;;;;76.75;47.40;;;;;;;9.88;68.21;101509.88;4973655;28;119847;-78
2022/11/29 08:21:23;;;;;;;73.63;46.80;;;;;;;9.89;67.97;101507.91;4988257;28;119348;-78
2022/11/29 08:23:49;;;;;;;72.80;45.80;;;;;;;9.89;67.99;101511.41;4975920;28;120856;-79
2022/11/29 08:26:16;;;;;;;76.22;46.80;;;;;;;9.87;67.76;101513.03;4993744;28;119271;-79
2022/11/29 08:28:43;;;;;;;72.20;45.90;;;;;;;9.85;68.27;101508.75;4990994;28;119838;-78
2022/11/29 08:31:11;;;;;;;72.90;46.33;;;;;;;9.88;68.14;101518.09;4973509;28;119382;-79
2022/11/29 08:33:39;;;;;;;73.15;45.78;;;;;;;9.91;68.25;101525.47;4989014;28;119888;-79
2022/11/29 08:36:08;;;;;;;68.32;44.70;;;;;;;9.88;68.14;101518.09;4970313;28;120102;-79
2022/11/29 08:38:34;;;;;;;71.03;44.58;;;;;;;9.89;68.03;101507.91;4972414;28;119505;-79
2022/11/29 08:41:11;;;;;;;66.82;43.70;;;;;;;9.88;67.96;101511.84;4990871;28;119753;-77
2022/11/29 08:43:37;;;;;;;72.80;46.00;;;;;;;9.94;68.31;101512.91;4988796;28;120094;-79
2022/11/29 08:46:03;;;;;;;74.18;45.60;;;;;;;9.95;68.25;101517.19;4956339;28;119636;-79
2022/11/29 08:48:29;;;;;;;73.50;46.22;;;;;;;10.00;67.52;101519.41;4993862;28;119411;-78
2022/11/29 08:51:14;;;;;;;74.00;46.22;;;;;;;9.95;68.02;101523.44;4988901;28;119327;-78
2022/11/29 08:53:40;;;;;;;76.43;46.40;;;;;;;9.95;67.74;101528.16;4972119;28;119902;-79
2022/11/29 08:56:17;;;;;;;72.50;46.80;;;;;;;9.99;68.00;101524.13;4971779;28;121253;-78
2022/11/29 08:58:44;;;;;;;72.20;45.83;;;;;;;9.98;67.80;101533.53;4986284;28;119844;-76
2022/11/29 09:01:16;;;;;;;78.13;47.65;;;;;;;10.00;67.87;101544.09;4986268;28;119325;-77
2022/11/29 09:03:58;;;;;;;75.93;45.83;;;;;;;10.01;68.01;101538.19;4984567;28;119743;-77
2022/11/29 09:06:26;;;;;;;65.28;44.25;;;;;;;10.03;67.83;101540.50;4985952;28;119886;-76
2022/11/29 09:08:56;;;;;;;63.92;44.45;;;;;;;10.02;68.02;101538.94;4986047;28;119329;-76
2022/11/29 09:11:23;;;;;;;75.95;47.00;;;;;;;10.05;67.78;101546.31;4971611;28;119980;-79
2022/11/29 09:13:51;;;;;;;68.00;44.45;;;;;;;10.01;67.83;101534.66;4989241;28;119829;-78
2022/11/29 09:16:19;;;;;;;70.85;45.40;;;;;;;10.09;67.45;101553.25;4967354;28;120206;-77
2022/11/29 09:18:48;;;;;;;65.72;45.40;;;;;;;10.09;67.57;101552.50;4984934;28;119778;-77
2022/11/29 09:21:14;;;;;;;65.15;45.13;;;;;;;10.10;66.98;101551.28;4969560;28;119774;-77
2022/11/29 09:23:41;;;;;;;63.53;44.38;;;;;;;10.09;67.45;101560.72;4967581;28;120000;-77
2022/11/29 09:26:08;;;;;;;68.43;45.85;;;;;;;10.08;67.52;101556.44;4970750;28;120751;-76
2022/11/29 09:28:35;;;;;;;65.65;44.63;;;;;;;10.14;67.21;101560.19;4988658;28;119318;-76
2022/11/29 09:31:09;;;;;;;64.53;45.50;;;;;;;10.16;67.44;101566.03;4988915;28;120048;-77
2022/11/29 09:33:35;;;;;;;66.72;47.40;;;;;;;10.14;67.42;101562.94;4992917;28;119370;-78
2022/11/29 09:36:02;;;;;;;69.28;46.88;;;;;;;10.15;67.35;101564.50;4953879;28;120755;-77
2022/11/29 09:38:28;;;;;;;61.90;44.03;;;;;;;10.18;67.40;101571.88;4971712;28;119686;-77
2022/11/29 09:41:04;;;;;;;66.80;45.47;;;;;;;10.11;67.28;101555.56;4951981;28;119999;-77
2022/11/29 09:44:07;;;;;;;68.50;45.78;;;;;;;10.22;66.76;101578.09;4987093;28;121610;-77
2022/11/29 09:47:26;;;;;;;68.13;45.88;;;;;;;10.23;67.22;101582.38;4987291;28;119937;-77
2022/11/29 09:50:13;;;;;;;71.38;46.47;;;;;;;10.24;67.03;101583.91;4909581;28;119575;-76
2022/11/29 09:52:51;;;;;;;72.47;47.38;;;;;;;10.25;67.09;101590.94;4926551;28;119631;-77
2022/11/29 09:55:32;;;;;;;66.35;46.30;;;;;;;10.25;66.81;101585.47;4919770;28;119419;-77
2022/11/29 09:58:00;;;;;;;68.85;46.72;;;;;;;10.26;67.06;101589.75;4925629;28;119729;-77
2022/11/29 10:00:27;;;;;;;71.03;47.80;;;;;;;10.24;67.10;101581.19;4926636;28;119501;-77
2022/11/29 10:03:12;;;;;;;71.35;49.80;;;;;;;10.25;67.17;101588.19;4926626;28;119928;-77
2022/11/29 10:05:49;;;;;;;72.13;48.97;;;;;;;10.25;66.79;101588.19;4927006;28;119502;-77
2022/11/29 10:08:18;;;;;;;73.00;49.92;;;;;;;10.25;66.61;101590.94;4916664;28;119398;-78
2022/11/29 10:10:49;;;;;;;76.13;49.95;;;;;;;10.23;66.89;101595.31;4927591;28;119814;-77
2022/11/29 10:13:29;;;;;;;75.80;50.90;;;;;;;10.24;66.94;101599.59;4915221;28;119605;-77
2022/11/29 10:16:04;;;;;;;72.38;49.70;;;;;;;10.26;67.24;101599.94;4926057;28;119719;-77
2022/11/29 10:18:39;;;;;;;75.63;51.20;;;;;;;10.30;66.79;101595.16;4930984;28;119429;-77
2022/11/29 10:21:13;;;;;;;74.50;51.33;;;;;;;10.27;66.52;101596.00;4967683;28;119411;-77
2022/11/29 10:23:49;;;;;;;78.83;53.13;;;;;;;10.29;66.92;101602.59;4954529;28;120565;-77
2022/11/29 10:26:16;;;;;;;81.00;53.65;;;;;;;10.20;66.66;101588.69;4953526;28;122111;-77
2022/11/29 10:28:46;;;;;;;80.20;52.72;;;;;;;10.23;66.92;101596.09;4936679;28;119930;-77
2022/11/29 10:31:32;;;;;;;80.55;53.55;;;;;;;10.27;66.65;101599.50;4971255;28;119678;-78
2022/11/29 10:34:00;;;;;;;83.00;54.00;;;;;;;10.29;66.80;101604.56;4987177;28;119963;-77
2022/11/29 10:36:39;;;;;;;78.93;52.63;;;;;;;10.33;66.60;101600.53;4966427;28;120165;-77
2022/11/29 10:39:14;;;;;;;81.55;53.42;;;;;;;10.34;66.46;101604.84;4990279;28;119810;-76
2022/11/29 10:41:39;;;;;;;78.63;52.58;;;;;;;10.36;66.64;101605.19;4992449;28;120112;-77
2022/11/29 10:44:13;;;;;;;79.43;53.58;;;;;;;10.37;66.49;101601.22;4967959;28;119825;-77
2022/11/29 10:46:39;;;;;;;79.43;54.55;;;;;;;10.38;66.69;101608.25;4988185;28;119840;-77
2022/11/29 10:49:17;;;;;;;79.90;54.28;;;;;;;10.31;66.66;101586.50;4986346;28;119404;-77
2022/11/29 10:51:45;;;;;;;82.75;54.33;;;;;;;10.41;66.73;101601.19;4988573;28;119761;-77
2022/11/29 10:54:38;;;;;;;80.28;54.65;;;;;;;10.43;66.70;101605.03;4954208;28;120571;-77
2022/11/29 10:57:23;;;;;;;84.80;56.28;;;;;;;10.43;66.51;101599.56;4952449;28;119831;-77
2022/11/29 11:00:06;;;;;;;81.22;54.38;;;;;;;10.40;66.55;101592.16;4989327;28;119360;-77
2022/11/29 11:02:33;;;;;;;81.97;55.17;;;;;;;10.33;66.48;101586.84;4986713;28;119463;-76
2022/11/29 11:04:59;;;;;;;80.80;56.05;;;;;;;10.44;66.42;101592.88;4969360;28;119929;-77
2022/11/29 11:07:34;;;;;;;81.55;54.88;;;;;;;10.47;66.49;101598.69;4964078;28;119926;-77
2022/11/29 11:10:01;;;;;;;82.75;56.63;;;;;;;10.49;66.88;101588.84;4953580;28;119699;-77
2022/11/29 11:12:30;;;;;;;87.93;57.75;;;;;;;10.52;66.42;101598.94;4969429;28;119596;-77
2022/11/29 11:15:27;;;;;;;84.93;56.10;;;;;;;10.55;66.94;101595.34;4969528;28;119789;-79
2022/11/29 11:17:59;;;;;;;85.88;57.22;;;;;;;10.55;66.57;101597.31;4971264;28;119454;-79
2022/11/29 11:20:29;;;;;;;88.10;59.13;;;;;;;10.58;66.38;101599.19;4972096;28;119934;-78
2022/11/29 11:23:01;;;;;;;84.65;57.55;;;;;;;10.58;66.16;101605.47;4989572;28;119725;-79
2022/11/29 11:25:34;;;;;;;87.22;58.47;;;;;;;10.60;66.26;101610.53;4990957;28;119388;-78
2022/11/29 11:28:21;;;;;;;84.50;57.08;;;;;;;10.58;66.09;101607.44;4958002;28;121413;-78
2022/11/29 11:30:56;;;;;;;87.22;58.20;;;;;;;10.62;66.20;101610.88;4972032;28;119098;-78
2022/11/29 11:33:30;;;;;;;86.05;57.78;;;;;;;10.61;65.90;101609.31;4956502;28;120040;-79
2022/11/29 11:36:04;;;;;;;;;;;;;;;10.61;66.05;101606.56;4992216;28;120027;-79
2022/11/29 11:38:31;;;;;;;85.85;58.33;;;;;;;10.62;66.09;101602.63;4975690;28;119646;-79
2022/11/29 11:41:15;;;;;;;88.85;59.70;;;;;;;10.55;65.51;101598.09;4960826;28;120238;-78
2022/11/29 11:43:47;;;;;;;86.45;59.45;;;;;;;10.58;66.15;101602.72;4978519;28;119418;-79
2022/11/29 11:46:13;;;;;;;89.95;59.45;;;;;;;10.63;66.37;101604.94;4974918;28;119468;-77
2022/11/29 11:48:41;;;;;;;97.28;61.83;;;;;;;10.64;65.75;101608.47;4972462;28;119909;-77
2022/11/29 11:51:24;;;;;;;92.03;61.70;;;;;;;10.68;65.92;101611.91;4942755;28;120009;-77
2022/11/29 11:53:55;;;;;;;98.30;61.30;;;;;;;10.69;65.86;101619.72;4988386;28;119401;-77